Aérodrome :
LOGIN :

S'inscrire | Disclaimer

   EN    FR    IT 

 










Légende :    VFR   VFR Marginal   IFR   IFR Intensif   IFR Très Intensif
Visi : 
Plafond : 
>= 8 km
>= 3000ft
5 à 8 km
1000 à 3000 ft
1500m à 5 km
500 à 1000 ft
800 à 1500m
200 à 500 ft
< 800m
< 200 ft
Symboles :   Orages  Brouillard  Fortes neiges  Fortes précipitations  Vent > 20 kt
SIGMETs :   Divers  Orages  Givrage  Turbulence  Onde Orograph.  Cendres Volcan.






- Altitude de l'aérodrome : 526 ft
- Code IATA : LTN


EGGW - London Luton

DERNIER METAR :
  • 141250Z 20011KT 160V240 9999 VCSH SCT032CB BKN044 17/10 Q1000

METARs EXPIRÉS :
  • 141220Z AUTO 21010KT 170V230 9999 //////CB 17/11 Q1000
  • 141150Z AUTO 21013KT 9999 -RA SCT035/// SCT048/// //////TCU 16/11 Q1000
  • 141120Z AUTO 20009KT 160V230 9999 NCD 18/11 Q1000
  • 141050Z AUTO 21011KT 180V240 9999 FEW028/// SCT040/// //////CB 16/11 Q1001
  • 141020Z AUTO 22012KT 180V250 9999 FEW027/// //////TCU 16/11 Q1001
  • 140950Z AUTO 21012KT 170V230 9999 BKN024 BKN028 BKN045 16/10 Q1001
  • 140920Z AUTO 22013KT 180V240 9999 SCT018 SCT026 BKN046 16/11 Q1001
  • 140850Z AUTO 22012KT 9999 BKN015 BKN019 14/11 Q1001
  • 140820Z AUTO 22013KT 9999 BKN014 BKN021 OVC048 14/12 Q1001

TAF TAF EGGW
Valide du 14 à 12h jusqu'au 15 à 12h UTC


141102Z 1412/1512 22011KT 9999 SCT030
TEMPO 1412/1424 7000 SHRA
PROB30
TEMPO 1412/1422 25015G25KT 4000 +SHRA
PROB30
TEMPO 1501/1503 BKN012
PROB30
TEMPO 1508/1510 7000 SHRA BKN014
PROB30
TEMPO 1511/1512 4000 +SHRA
ATIS : +44 1582 395 204



MET'MAP, la Météo Aéronautique d'un coup d'oeil ! - Copyright ORBIFLY Décembre 2007 - Disclaimer

ORBIFLY MET'MAP TEAM :

Programmation & Développement : Alexandra Zaïnal
Sur une idée originale de : Baudouin d'Aumeries
Soutien technique & logistique : Manuel Goepfert
Assistance : Marc-Olivier Méhu




SOURCES & CREDITS :

   NOAA